Impacts TAF Board INFO
FOR SITUATIONAL AWARENESS. NOT TO BE USED FOR FLIGHT PLANNING PURPOSES.
IDs:

KIAH - Houston/Bush Intl, TX, US

Issued at 2334 UTC 11 Dec 2017
Updated at 0033 UTC 12 Dec 2017
Potential Impact None Slight Moderate High
Time<<13/01Z 13/02Z 13/03Z 13/04Z 13/05Z 13/06Z 13/07Z 13/08Z 13/09Z 13/10Z 13/11Z 13/12Z 13/13Z
Type PRVL PRVL PRVL PRVL PRVL
VIS >6 >6 >6 >6 >6
CIG -- -- -- -- --
Cover SKC SKC SKC SKC SKC
FltCat VFR VFR VFR VFR VFR
WX -- -- -- -- --
WDir VRB VRB VRB VRB VRB
WSpd 3 3 3 3 3
WGst -- -- -- -- --

Raw TAF
KIAH 112334Z 1200/1306 VRB05KT P6SM SCT250
  FM121400 36013KT P6SM SCT250
  FM130000 VRB03KT P6SM SKC


METAR Board
Radar Display
Forecast Discussion

FOR SITUATIONAL AWARENESS. NOT TO BE USED FOR FLIGHT PLANNING PURPOSES.